Terminal Aerodrome Forecast
Issued by NWS

Home | Current Version | Previous Version | Text Only | Print | Product List | Glossary On
Versions: 1 2 3 4 5 6 7 8 9 10 11 12 13
000
FTUS44 KEPZ 281720
TAFDMN
TAF
KDMN 281720Z 2818/2918 VRB05KT P6SM SCT080 BKN200
     FM282100 VRB05KT P6SM VCTS SCT080CB BKN150 BKN250
      TEMPO 2822/2902 VRB25G40KT 2SM TSRA BKN040CB
     FM290400 07007KT P6SM SCT100 BKN200=

USA.gov is the U.S. government's official web portal to all federal, state and local government web resources and services.